createdAt,value
2018-03-17T00:00:24.577Z,9.16
2018-03-17T00:01:04.995Z,9.1
2018-03-17T00:01:46.256Z,9.08
2018-03-17T00:02:26.944Z,9.17
2018-03-17T00:03:07.335Z,9.13
2018-03-17T00:03:48.613Z,9.15
2018-03-17T00:04:30.843Z,9.17
2018-03-17T00:05:11.105Z,9.1
2018-03-17T00:05:51.709Z,9.08
2018-03-17T00:06:31.990Z,9.13
2018-03-17T00:07:12.539Z,9.04
2018-03-17T00:07:52.859Z,9.1
2018-03-17T00:08:33.210Z,9.06
2018-03-17T00:09:13.734Z,9.08
2018-03-17T00:09:54.273Z,9.06
2018-03-17T00:10:34.614Z,9.16
2018-03-17T00:11:15.037Z,9.16
2018-03-17T00:11:55.732Z,9.16
2018-03-17T00:12:36.408Z,9.12
2018-03-17T00:13:16.465Z,8.91
2018-03-17T00:13:57.012Z,9.04
2018-03-17T00:14:37.264Z,9.03
2018-03-17T00:15:17.941Z,8.94
2018-03-17T00:15:58.287Z,9
2018-03-17T00:16:38.798Z,9
2018-03-17T00:17:19.381Z,8.97
2018-03-17T00:17:59.814Z,8.98
2018-03-17T00:18:41.075Z,8.96
2018-03-17T00:19:22.367Z,8.91
2018-03-17T00:20:03.910Z,8.88
2018-03-17T00:20:46.965Z,8.93
2018-03-17T00:21:27.582Z,8.91
2018-03-17T00:22:08.046Z,8.76
2018-03-17T00:22:48.349Z,8.73
2018-03-17T00:23:30.959Z,8.5
2018-03-17T00:24:12.493Z,8.32
2018-03-17T00:24:53.624Z,8.29
2018-03-17T00:25:35.208Z,8.18
2018-03-17T00:26:15.886Z,8.09
2018-03-17T00:26:57.831Z,8.02
2018-03-17T00:27:38.237Z,8.07
2018-03-17T00:28:21.499Z,8.07
2018-03-17T00:29:04.880Z,8.1
2018-03-17T00:31:24.240Z,7.48
2018-03-17T00:32:06.691Z,7.3
2018-03-17T00:32:47.068Z,7.14
2018-03-17T00:33:27.454Z,7.18
2018-03-17T00:34:08.503Z,7.11
2018-03-17T00:34:50.132Z,7.15
2018-03-17T00:35:31.138Z,7.15
2018-03-17T00:36:12.449Z,7.29
2018-03-17T00:36:55.090Z,7.45
2018-03-17T00:37:36.594Z,7.47
2018-03-17T00:38:17.641Z,7.48
2018-03-17T00:38:58.284Z,7.45
2018-03-17T00:39:38.883Z,7.58
2018-03-17T00:41:42.747Z,7.77
2018-03-17T00:42:25.257Z,7.73
2018-03-17T00:43:06.015Z,7.71
2018-03-17T00:43:46.720Z,7.76
2018-03-17T00:44:28.122Z,7.63
2018-03-17T00:45:08.525Z,7.54
2018-03-17T00:45:50.687Z,7.48
2018-03-17T00:46:32.163Z,7.41
2018-03-17T00:47:14.159Z,7.45
2018-03-17T00:47:56.195Z,7.23
2018-03-17T00:48:37.766Z,6.91
2018-03-17T00:49:18.256Z,6.82
2018-03-17T00:50:01.726Z,6.68
2018-03-17T00:51:51.012Z,6.83
2018-03-17T00:52:30.508Z,6.82
2018-03-17T00:53:10.793Z,6.93
2018-03-17T00:53:51.457Z,6.9
2018-03-17T00:54:34.407Z,7.08
2018-03-17T00:55:15.623Z,7.09
2018-03-17T00:55:56.935Z,7.08
2018-03-17T00:56:38.128Z,7.16
2018-03-17T00:57:19.435Z,7.27
2018-03-17T00:58:00.970Z,7.27
2018-03-17T00:58:43.111Z,7.33
2018-03-17T00:59:23.569Z,7.34
2018-03-17T01:00:08.955Z,7.39
2018-03-17T01:00:50.689Z,7.45
2018-03-17T01:01:34.018Z,7.47
2018-03-17T01:02:14.964Z,7.33
2018-03-17T01:02:55.588Z,7.27
2018-03-17T01:03:36.241Z,7.24
2018-03-17T01:04:16.693Z,7.32
2018-03-17T01:04:57.332Z,7.23
2018-03-17T01:05:39.935Z,7.24
2018-03-17T01:06:20.264Z,7.27
2018-03-17T01:07:01.457Z,7.21
2018-03-17T01:07:43.092Z,7.27
2018-03-17T01:08:23.723Z,7.3
2018-03-17T01:09:05.643Z,7.44
2018-03-17T01:09:45.665Z,7.51
2018-03-17T01:10:26.467Z,7.6
2018-03-17T01:11:06.935Z,7.63
2018-03-17T01:11:48.426Z,7.63
2018-03-17T01:12:29.073Z,7.67
2018-03-17T01:13:09.381Z,7.66
2018-03-17T01:13:49.993Z,7.71
2018-03-17T01:14:31.219Z,7.6
2018-03-17T01:15:15.171Z,7.66
2018-03-17T01:15:56.452Z,7.57
2018-03-17T01:16:37.153Z,7.6
2018-03-17T01:18:57.140Z,7.7
2018-03-17T01:19:40.834Z,7.42
2018-03-17T01:20:25.359Z,7.26
2018-03-17T01:21:06.825Z,7.19
2018-03-17T01:21:47.120Z,7.04
2018-03-17T01:22:28.420Z,6.93
2018-03-17T01:23:10.223Z,6.73
2018-03-17T01:23:50.545Z,6.64
2018-03-17T01:24:33.250Z,6.63
2018-03-17T01:25:13.027Z,6.57
2018-03-17T01:25:54.963Z,6.5
2018-03-17T01:26:36.019Z,6.46
2018-03-17T01:27:16.481Z,6.61
2018-03-17T01:27:57.535Z,6.68
2018-03-17T01:28:38.746Z,6.63
2018-03-17T01:29:19.093Z,6.21
2018-03-17T01:29:59.562Z,6.19
2018-03-17T01:30:40.960Z,6.05
2018-03-17T01:31:23.141Z,5.96
2018-03-17T01:32:03.327Z,5.93
2018-03-17T01:32:44.791Z,5.84
2018-03-17T01:33:26.905Z,5.83
2018-03-17T01:34:08.548Z,5.85
2018-03-17T01:34:49.663Z,5.75
2018-03-17T01:35:32.283Z,5.78
2018-03-17T01:36:13.442Z,5.7
2018-03-17T01:36:53.789Z,5.6
2018-03-17T01:37:36.968Z,5.58
2018-03-17T01:38:17.014Z,5.62
2018-03-17T01:38:57.554Z,5.63
2018-03-17T01:39:38.024Z,5.84
2018-03-17T01:40:20.603Z,6.01
2018-03-17T01:41:01.495Z,6.11
2018-03-17T01:41:42.354Z,6.19
2018-03-17T01:42:24.883Z,6.35
2018-03-17T01:43:05.367Z,6.45
2018-03-17T01:45:06.728Z,6.69
2018-03-17T01:45:46.425Z,6.65
2018-03-17T01:46:29.567Z,6.65
2018-03-17T01:47:11.236Z,6.58
2018-03-17T01:47:51.505Z,6.64
2018-03-17T01:48:31.813Z,6.68
2018-03-17T01:49:13.045Z,6.51
2018-03-17T01:49:55.455Z,6.32
2018-03-17T01:50:35.838Z,6.28
2018-03-17T01:51:16.965Z,6.35
2018-03-17T01:51:57.237Z,6.4
2018-03-17T01:52:37.746Z,6.45
2018-03-17T01:53:20.266Z,6.42
2018-03-17T01:54:01.075Z,6.45
2018-03-17T01:54:41.800Z,6.51
2018-03-17T01:55:26.973Z,6.53
2018-03-17T01:56:07.596Z,6.73
2018-03-17T01:56:49.198Z,6.48
2018-03-17T01:57:30.432Z,6.2
2018-03-17T01:58:11.198Z,6.11
2018-03-17T01:58:51.441Z,6.14
2018-03-17T01:59:32.337Z,5.9
2018-03-17T02:00:12.977Z,5.87
2018-03-17T02:00:53.492Z,5.74
2018-03-17T02:01:34.604Z,5.92
2018-03-17T02:02:17.404Z,6.06
2018-03-17T02:02:57.669Z,6.05
2018-03-17T02:03:38.897Z,6.03
2018-03-17T02:04:22.386Z,6.16
2018-03-17T02:05:01.998Z,6.19
2018-03-17T02:05:43.141Z,6.39
2018-03-17T02:06:24.672Z,6.51
2018-03-17T02:07:04.589Z,6.55
2018-03-17T02:07:47.259Z,6.55
2018-03-17T02:08:27.802Z,6.55
2018-03-17T02:09:08.300Z,6.55
2018-03-17T02:09:49.100Z,6.65
2018-03-17T02:10:29.624Z,6.68
2018-03-17T02:11:10.676Z,6.69
2018-03-17T02:11:51.585Z,6.73
2018-03-17T02:12:32.864Z,6.64
2018-03-17T02:13:14.136Z,6.46
2018-03-17T02:13:55.058Z,6.27
2018-03-17T02:14:35.966Z,6.13
2018-03-17T02:15:16.459Z,6.11
2018-03-17T02:15:56.893Z,6.2
2018-03-17T02:16:37.578Z,6.21
2018-03-17T02:17:20.566Z,6.35
2018-03-17T02:18:01.401Z,6.46
2018-03-17T02:18:44.305Z,6.5
2018-03-17T02:19:25.256Z,6.45
2018-03-17T02:20:05.741Z,6.42
2018-03-17T02:20:46.296Z,6.51
2018-03-17T02:21:28.487Z,6.48
2018-03-17T02:22:08.944Z,6.32
2018-03-17T02:22:49.453Z,6.32
2018-03-17T02:23:32.153Z,6.32
2018-03-17T02:24:13.759Z,6.45
2018-03-17T02:24:55.315Z,6.4
2018-03-17T02:25:36.565Z,6.51
2018-03-17T02:26:17.053Z,6.57
2018-03-17T02:26:57.595Z,6.58
2018-03-17T02:27:39.602Z,6.21
2018-03-17T02:28:21.106Z,6.08
2018-03-17T02:29:02.108Z,6.05
2018-03-17T02:29:42.677Z,6.05
2018-03-17T02:30:24.056Z,5.88
2018-03-17T02:31:04.868Z,5.66
2018-03-17T02:31:45.255Z,5.65
2018-03-17T02:32:25.895Z,5.73
2018-03-17T02:33:07.623Z,5.87
2018-03-17T02:33:47.827Z,5.87
2018-03-17T02:34:28.330Z,5.96
2018-03-17T02:35:08.803Z,6.05
2018-03-17T02:35:49.522Z,5.99
2018-03-17T02:36:31.630Z,6.03
2018-03-17T02:37:17.005Z,6.17
2018-03-17T02:37:57.259Z,6.2
2018-03-17T02:38:37.506Z,6.2
2018-03-17T02:39:18.216Z,6.2
2018-03-17T02:39:58.693Z,6.28
2018-03-17T02:40:39.387Z,6.38
2018-03-17T02:41:20.549Z,6.46
2018-03-17T02:42:01.762Z,6.51
2018-03-17T02:42:42.270Z,6.48
2018-03-17T02:43:22.803Z,6.53
2018-03-17T02:44:03.431Z,6.46
2018-03-17T02:44:44.000Z,6.38
2018-03-17T02:45:24.334Z,6.36
2018-03-17T02:46:05.712Z,6.32
2018-03-17T02:46:46.157Z,6.21
2018-03-17T02:47:26.550Z,6.03
2018-03-17T02:48:07.233Z,5.77
2018-03-17T02:48:47.830Z,5.41
2018-03-17T02:49:28.217Z,5.35
2018-03-17T02:50:08.975Z,5.27
2018-03-17T02:50:49.805Z,5.26
2018-03-17T02:51:30.611Z,5.14
2018-03-17T02:52:11.555Z,4.84
2018-03-17T02:52:52.110Z,4.75
2018-03-17T02:53:35.989Z,4.87
2018-03-17T02:54:16.958Z,4.99
2018-03-17T02:54:57.370Z,5.15
2018-03-17T02:55:37.785Z,5.26
2018-03-17T02:56:18.362Z,5.33
2018-03-17T02:56:59.629Z,5.47
2018-03-17T02:57:39.957Z,5.44
2018-03-17T02:58:20.617Z,5.32
2018-03-17T02:59:01.903Z,5.27
2018-03-17T02:59:42.914Z,5.27
2018-03-17T03:00:23.781Z,5.29
2018-03-17T03:01:03.886Z,5.33
2018-03-17T03:01:45.710Z,5.44
2018-03-17T03:02:27.163Z,5.48
2018-03-17T03:03:07.374Z,5.56
2018-03-17T03:03:47.827Z,5.56
2018-03-17T03:04:28.361Z,5.49
2018-03-17T03:05:08.710Z,5.62
2018-03-17T03:05:49.528Z,5.73
2018-03-17T03:06:30.886Z,5.9
2018-03-17T03:07:11.861Z,6.01
2018-03-17T03:07:52.198Z,6.06
2018-03-17T03:08:33.041Z,6.11
2018-03-17T03:09:13.585Z,6.17
2018-03-17T03:09:53.906Z,6.13
2018-03-17T03:10:34.712Z,5.85
2018-03-17T03:11:15.295Z,5.8
2018-03-17T03:11:56.542Z,5.7
2018-03-17T03:12:37.808Z,5.75
2018-03-17T03:13:18.106Z,5.81
2018-03-17T03:14:02.710Z,5.8
2018-03-17T03:14:43.646Z,5.55
2018-03-17T03:15:24.196Z,5.12
2018-03-17T03:16:05.136Z,4.79
2018-03-17T03:16:46.716Z,4.69
2018-03-17T03:17:27.259Z,4.62
2018-03-17T03:18:07.672Z,4.54
2018-03-17T03:18:48.440Z,4.64
2018-03-17T03:19:29.420Z,4.65
2018-03-17T03:20:09.944Z,4.61
2018-03-17T03:20:51.921Z,4.34
2018-03-17T03:21:31.999Z,4.34
2018-03-17T03:22:15.080Z,4.1
2018-03-17T03:22:55.592Z,4.07
2018-03-17T03:23:36.380Z,3.95
2018-03-17T03:24:18.705Z,4.08
2018-03-17T03:24:59.860Z,4.29
2018-03-17T03:25:40.553Z,4.26
2018-03-17T03:26:21.753Z,4.29
2018-03-17T03:27:02.137Z,4.34
2018-03-17T03:27:43.636Z,4.35
2018-03-17T03:28:24.506Z,4.42
2018-03-17T03:29:06.138Z,4.26
2018-03-17T03:29:48.281Z,4.25
2018-03-17T03:30:29.265Z,4.13
2018-03-17T03:31:10.918Z,4.13
2018-03-17T03:31:51.449Z,4.1
2018-03-17T03:32:32.584Z,4.28
2018-03-17T03:33:13.073Z,4.32
2018-03-17T03:33:53.546Z,4.47
2018-03-17T03:34:36.273Z,4.5
2018-03-17T03:35:17.415Z,4.61
2018-03-17T03:35:58.910Z,4.69
2018-03-17T03:36:40.328Z,4.54
2018-03-17T03:37:24.249Z,4.59
2018-03-17T03:38:06.030Z,4.65
2018-03-17T03:38:46.480Z,4.61
2018-03-17T03:39:27.487Z,4.64
2018-03-17T03:40:09.182Z,4.51
2018-03-17T03:40:49.825Z,4.72
2018-03-17T03:41:30.937Z,4.75
2018-03-17T03:42:11.443Z,4.9
2018-03-17T03:42:51.858Z,5.04
2018-03-17T03:43:32.272Z,4.93
2018-03-17T03:44:12.736Z,4.8
2018-03-17T03:44:53.903Z,4.94
2018-03-17T03:45:35.280Z,5.12
2018-03-17T03:46:17.382Z,5.2
2018-03-17T03:46:57.962Z,5.3
2018-03-17T03:47:38.534Z,5.11
2018-03-17T03:48:19.092Z,5.14
2018-03-17T03:48:59.636Z,5.01
2018-03-17T03:49:40.415Z,4.84
2018-03-17T03:50:21.254Z,4.79
2018-03-17T03:51:01.904Z,4.87
2018-03-17T03:51:42.347Z,4.93
2018-03-17T03:52:24.228Z,5.04
2018-03-17T03:53:06.144Z,5.23
2018-03-17T03:53:46.858Z,5.23
2018-03-17T03:54:27.246Z,5.37
2018-03-17T03:55:07.806Z,5.44
2018-03-17T03:55:48.227Z,5.29
2018-03-17T03:56:30.384Z,5.37
2018-03-17T03:57:10.851Z,5.41
2018-03-17T03:57:52.378Z,5.24
2018-03-17T03:58:34.196Z,5.2
2018-03-17T03:59:14.705Z,5.06
2018-03-17T03:59:55.118Z,4.96
2018-03-17T04:00:35.536Z,4.84
2018-03-17T04:01:16.080Z,4.75
2018-03-17T04:01:56.468Z,4.69
2018-03-17T04:02:38.883Z,4.65
2018-03-17T04:03:19.122Z,4.75
2018-03-17T04:03:59.712Z,4.8
2018-03-17T04:04:40.152Z,4.83
2018-03-17T04:05:21.407Z,4.96
2018-03-17T04:06:02.048Z,4.8
2018-03-17T04:06:43.309Z,4.84
2018-03-17T04:07:24.630Z,4.86
2018-03-17T04:08:05.571Z,4.57
2018-03-17T04:08:46.058Z,4.57
2018-03-17T04:46:57.072Z,4.08
2018-03-17T04:47:36.602Z,4.02
2018-03-17T04:48:17.976Z,4.02
2018-03-17T04:48:58.087Z,4.16
2018-03-17T04:49:38.279Z,4.26
2018-03-17T04:50:18.715Z,4.29
2018-03-17T04:50:59.753Z,4.1
2018-03-17T04:52:39.286Z,3.64
2018-03-17T04:53:20.768Z,3.57
2018-03-17T04:54:01.970Z,3.52
2018-03-17T04:54:43.193Z,3.62
2018-03-17T04:55:24.249Z,3.74
2018-03-17T04:56:05.640Z,4
2018-03-17T04:56:46.156Z,3.82
2018-03-17T04:57:26.560Z,3.78
2018-03-17T04:58:08.117Z,3.81
2018-03-17T04:58:48.331Z,3.64
2018-03-17T04:59:28.694Z,3.56
2018-03-17T05:00:10.946Z,3.5
2018-03-17T05:00:52.184Z,3.57
2018-03-17T05:01:33.217Z,3.57
2018-03-17T05:02:15.028Z,3.57
2018-03-17T05:02:56.398Z,3.59
2018-03-17T05:03:36.653Z,3.64
2018-03-17T05:04:17.113Z,3.54
2018-03-17T05:04:58.712Z,3.49
2018-03-17T05:05:39.714Z,3.59
2018-03-17T05:06:20.834Z,3.71
2018-03-17T05:07:02.054Z,3.81
2018-03-17T05:07:43.103Z,3.89
2018-03-17T05:08:23.588Z,3.93
2018-03-17T05:09:04.784Z,3.78
2018-03-17T05:09:45.148Z,3.84
2018-03-17T05:10:25.731Z,3.93
2018-03-17T05:11:06.055Z,3.96
2018-03-17T05:11:48.417Z,4.11
2018-03-17T05:12:28.945Z,4.26
2018-03-17T05:13:09.408Z,4.28
2018-03-17T05:13:50.035Z,4.38
2018-03-17T05:14:30.390Z,4.36
2018-03-17T05:15:11.616Z,4.29
2018-03-17T05:15:52.118Z,4.32
2018-03-17T05:16:32.510Z,4.18
2018-03-17T05:17:12.837Z,4.24
2018-03-17T05:17:53.575Z,4.31
2018-03-17T05:18:33.934Z,4.44
2018-03-17T05:19:14.268Z,4.53
2018-03-17T05:19:54.711Z,4.75
2018-03-17T05:20:35.690Z,4.91
2018-03-17T05:21:16.470Z,5.15
2018-03-17T05:21:57.389Z,5.27
2018-03-17T05:22:38.108Z,5.19
2018-03-17T05:23:18.619Z,5.23
2018-03-17T05:23:59.083Z,5.23
2018-03-17T05:24:39.577Z,5.32
2018-03-17T05:25:20.175Z,5.11
2018-03-17T05:26:00.666Z,5.05
2018-03-17T05:26:41.008Z,4.57
2018-03-17T05:27:21.507Z,4.46
2018-03-17T05:28:01.936Z,4.47
2018-03-17T05:28:42.622Z,4.26
2018-03-17T05:29:23.218Z,4.11
2018-03-17T05:30:04.458Z,4.16
2018-03-17T05:30:45.099Z,4.29
2018-03-17T05:31:26.259Z,4.46
2018-03-17T05:32:07.306Z,4.61
2018-03-17T05:32:49.744Z,4.67
2018-03-17T05:33:33.436Z,4.84
2018-03-17T05:34:15.104Z,4.75
2018-03-17T05:34:55.604Z,4.87
2018-03-17T05:35:36.554Z,5.14
2018-03-17T05:36:17.129Z,5.06
2018-03-17T05:36:58.030Z,4.9
2018-03-17T05:37:38.157Z,4.77
2018-03-17T05:38:19.435Z,4.77
2018-03-17T05:39:00.363Z,4.77
2018-03-17T05:39:41.538Z,4.75
2018-03-17T05:40:22.561Z,4.9
2018-03-17T05:41:02.934Z,5.05
2018-03-17T05:41:43.298Z,5.23
2018-03-17T05:42:23.756Z,5.32
2018-03-17T05:43:04.727Z,5.52
2018-03-17T05:43:45.614Z,5.65
2018-03-17T05:44:26.396Z,5.78
2018-03-17T05:45:07.477Z,5.85
2018-03-17T05:45:49.142Z,5.75
2018-03-17T05:46:30.244Z,5.55
2018-03-17T05:47:11.361Z,5.58
2018-03-17T05:47:51.768Z,5.55
2018-03-17T05:48:32.049Z,5.52
2018-03-17T05:49:12.449Z,5.63
2018-03-17T05:49:54.107Z,5.75
2018-03-17T05:50:34.578Z,5.69
2018-03-17T05:51:14.944Z,5.7
2018-03-17T05:51:57.422Z,5.75
2018-03-17T05:52:37.932Z,5.84
2018-03-17T05:53:18.060Z,5.85
2018-03-17T05:53:59.906Z,6.02
2018-03-17T05:54:40.947Z,6.01
2018-03-17T05:55:21.281Z,6.03
2018-03-17T05:56:01.565Z,6.1
2018-03-17T05:56:42.107Z,5.99
2018-03-17T05:57:22.539Z,6.01
2018-03-17T05:58:02.927Z,6.11
2018-03-17T05:58:43.250Z,6.13
2018-03-17T05:59:23.840Z,6.06
2018-03-17T06:00:04.325Z,5.67
2018-03-17T06:00:44.740Z,5.62
2018-03-17T06:01:25.158Z,5.47
2018-03-17T06:02:05.797Z,5.24
2018-03-17T06:02:46.370Z,5.27
2018-03-17T06:03:27.904Z,5.2
2018-03-17T06:04:08.567Z,5.24
2018-03-17T06:04:49.783Z,5.19
2018-03-17T06:05:31.259Z,5.15
2018-03-17T06:06:11.406Z,5.05
2018-03-17T06:06:52.570Z,5.08
2018-03-17T06:07:33.729Z,4.99
2018-03-17T06:08:14.267Z,4.75
2018-03-17T06:08:54.619Z,4.46
2018-03-17T06:09:35.956Z,4.39
2018-03-17T06:10:17.140Z,4.44
2018-03-17T06:10:57.699Z,4.43
2018-03-17T06:11:43.789Z,4.59
2018-03-17T06:12:24.854Z,4.67
2018-03-17T06:13:05.968Z,4.86
2018-03-17T06:13:46.431Z,5.02
2018-03-17T06:14:27.465Z,5.09
2018-03-17T06:15:08.144Z,5.09
2018-03-17T06:15:50.314Z,5.05
2018-03-17T06:16:31.965Z,5.2
2018-03-17T06:17:12.541Z,5.29
2018-03-17T06:17:54.018Z,5.26
2018-03-17T06:18:33.865Z,5.32
2018-03-17T06:19:14.178Z,5.35
2018-03-17T06:19:55.059Z,5.3
2018-03-17T06:20:35.758Z,5.37
2018-03-17T06:21:16.261Z,5.51
2018-03-17T06:21:56.559Z,5.52
2018-03-17T06:22:37.186Z,5.27
2018-03-17T06:23:18.563Z,5.12
2018-03-17T06:23:58.922Z,5.15
2018-03-17T06:24:40.147Z,5.12
2018-03-17T06:25:21.023Z,5.29
2018-03-17T06:26:01.185Z,5.26
2018-03-17T06:26:41.431Z,5.35
2018-03-17T06:27:21.877Z,5.26
2018-03-17T06:28:02.509Z,5.3
2018-03-17T06:28:43.226Z,5.24
2018-03-17T06:29:24.305Z,5.35
2018-03-17T06:30:05.446Z,5.4
2018-03-17T06:30:45.904Z,5.35
2018-03-17T06:31:26.594Z,5.3
2018-03-17T06:32:07.763Z,5.06
2018-03-17T06:32:48.354Z,5.01
2018-03-17T06:33:28.639Z,5.05
2018-03-17T06:34:09.276Z,5.26
2018-03-17T06:34:49.750Z,5.17
2018-03-17T06:35:31.373Z,5.14
2018-03-17T06:36:12.192Z,5.24
2018-03-17T06:36:53.178Z,5.24
2018-03-17T06:37:33.672Z,5.33
2018-03-17T06:38:14.110Z,5.26
2018-03-17T06:38:55.517Z,5.3
2018-03-17T06:39:35.956Z,5.33
2018-03-17T06:40:16.722Z,5.35
2018-03-17T06:40:57.854Z,5.47
2018-03-17T06:41:38.112Z,5.65
2018-03-17T06:42:18.684Z,5.69
2018-03-17T06:43:00.571Z,5.69
2018-03-17T06:43:40.994Z,5.77
2018-03-17T06:44:22.839Z,5.73
2018-03-17T06:46:42.087Z,5.65
2018-03-17T06:50:17.272Z,5.37
2018-03-17T06:50:58.718Z,4.99
2018-03-17T06:51:39.961Z,4.93
2018-03-17T06:52:20.810Z,4.87
2018-03-17T06:53:01.150Z,4.83
2018-03-17T06:53:41.555Z,4.51
2018-03-17T06:54:22.011Z,4.56
2018-03-17T06:55:02.632Z,4.36
2018-03-17T06:55:44.009Z,4.14
2018-03-17T06:56:24.339Z,3.75
2018-03-17T06:57:06.568Z,3.81
2018-03-17T06:57:47.752Z,3.84
2018-03-17T06:58:29.417Z,4.06
2018-03-17T06:59:12.025Z,4.38
2018-03-17T06:59:51.613Z,4.54
2018-03-17T07:00:32.355Z,4.49
2018-03-17T07:01:12.784Z,4.51
2018-03-17T07:01:54.897Z,4.64
2018-03-17T07:02:36.211Z,4.61
2018-03-17T07:03:16.691Z,4.74
2018-03-17T07:03:57.334Z,4.83
2018-03-17T07:04:38.188Z,4.91
2018-03-17T07:05:18.854Z,5.11
2018-03-17T07:05:59.232Z,5.12
2018-03-17T07:06:40.442Z,5.23
2018-03-17T07:07:20.858Z,5.4
2018-03-17T07:08:01.221Z,5.41
2018-03-17T07:08:41.638Z,5.35
2018-03-17T07:09:24.134Z,5.37
2018-03-17T07:10:04.499Z,5.35
2018-03-17T07:10:44.897Z,5.37
2018-03-17T07:11:25.917Z,5.09
2018-03-17T07:12:06.287Z,5.09
2018-03-17T07:12:46.672Z,5.09
2018-03-17T07:13:27.237Z,5.04
2018-03-17T07:14:07.540Z,5.17
2018-03-17T07:14:48.191Z,5.17
2018-03-17T07:15:28.606Z,5.17
2018-03-17T07:16:11.966Z,5.02
2018-03-17T07:16:54.317Z,5.06
2018-03-17T07:17:35.211Z,4.83
2018-03-17T07:18:15.354Z,4.83
2018-03-17T07:18:56.410Z,4.83
2018-03-17T07:19:37.688Z,4.65
2018-03-17T07:20:19.243Z,4.72
2018-03-17T07:21:00.432Z,4.65
2018-03-17T07:21:41.041Z,4.36
2018-03-17T07:22:22.300Z,4.28
2018-03-17T07:23:05.151Z,4.39
2018-03-17T07:23:45.649Z,4.29
2018-03-17T07:24:25.997Z,4.31
2018-03-17T07:25:06.956Z,4.28
2018-03-17T07:25:47.466Z,4.29
2018-03-17T07:26:27.967Z,4.28
2018-03-17T07:27:08.480Z,4.32
2018-03-17T07:27:49.176Z,4.5
2018-03-17T07:28:30.739Z,4.29
2018-03-17T07:30:33.533Z,4.11
2018-03-17T07:31:23.458Z,4.31
2018-03-17T07:32:04.321Z,4.28
2018-03-17T07:32:45.602Z,4.25
2018-03-17T07:33:26.227Z,4.32
2018-03-17T07:34:09.902Z,4.34
2018-03-17T07:34:50.035Z,4.2
2018-03-17T07:35:30.905Z,3.84
2018-03-17T07:36:11.894Z,3.68
2018-03-17T07:36:55.355Z,3.37
2018-03-17T07:37:36.661Z,3.26
2018-03-17T07:38:19.601Z,3.37
2018-03-17T07:39:01.116Z,3.22
2018-03-17T07:39:41.259Z,3.44
2018-03-17T07:40:21.930Z,3.44
2018-03-17T07:41:02.837Z,3.67
2018-03-17T07:41:45.533Z,3.78
2018-03-17T07:42:27.431Z,4
2018-03-17T07:43:09.530Z,4.21
2018-03-17T07:43:52.010Z,4
2018-03-17T07:44:33.789Z,4.07
2018-03-17T07:45:14.314Z,3.92
2018-03-17T07:45:55.119Z,4
2018-03-17T07:46:35.764Z,4.04
2018-03-17T07:47:17.125Z,4.17
2018-03-17T07:47:58.765Z,4.25
2018-03-17T07:48:46.428Z,4.35
2018-03-17T07:49:30.506Z,4.47
2018-03-17T07:50:11.082Z,4.5
2018-03-17T07:50:51.633Z,4.21
2018-03-17T07:51:33.957Z,4.2
2018-03-17T07:52:18.820Z,4.18
2018-03-17T07:52:59.713Z,4.24
2018-03-17T07:53:40.589Z,4.26
2018-03-17T07:54:23.324Z,4.34
2018-03-17T07:55:10.104Z,4.5
2018-03-17T07:56:59.924Z,4.56
2018-03-17T07:58:50.852Z,4.8
2018-03-17T07:59:31.484Z,4.77
2018-03-17T08:00:12.363Z,4.88
2018-03-17T08:00:52.766Z,4.93
2018-03-17T08:01:33.399Z,4.87
2018-03-17T08:02:14.319Z,4.93
2018-03-17T08:02:54.946Z,5.01
2018-03-17T08:03:35.281Z,5.06
2018-03-17T08:04:15.720Z,5.12
2018-03-17T08:04:56.759Z,5.14
2018-03-17T08:05:37.227Z,5.23
2018-03-17T08:06:17.760Z,5.26
2018-03-17T08:06:58.943Z,5.4
2018-03-17T08:07:39.312Z,5.29
2018-03-17T08:08:19.841Z,5.27
2018-03-17T08:09:00.741Z,5.32
2018-03-17T08:09:43.293Z,5.47
2018-03-17T08:10:23.741Z,5.52
2018-03-17T08:11:05.202Z,5.59
2018-03-17T08:11:45.765Z,5.65
2018-03-17T08:12:26.618Z,5.65
2018-03-17T08:13:07.295Z,5.65
2018-03-17T08:13:47.981Z,5.69
2018-03-17T08:14:29.425Z,5.73
2018-03-17T08:15:09.452Z,5.75
2018-03-17T08:15:50.034Z,5.92
2018-03-17T08:16:30.603Z,5.93
2018-03-17T08:17:11.893Z,5.96
2018-03-17T08:17:52.317Z,5.92
2018-03-17T08:18:32.758Z,5.7
2018-03-17T08:19:13.475Z,5.7
2018-03-17T08:19:54.354Z,5.69
2018-03-17T08:20:34.774Z,5.55
2018-03-17T08:21:15.213Z,5.65
2018-03-17T08:21:55.660Z,5.63
2018-03-17T08:22:36.153Z,5.73
2018-03-17T08:23:17.111Z,5.8
2018-03-17T08:23:57.515Z,5.85
2018-03-17T08:24:37.901Z,5.96
2018-03-17T08:25:18.997Z,5.9
2018-03-17T08:25:59.365Z,5.93
2018-03-17T08:26:40.808Z,5.9
2018-03-17T08:27:21.268Z,5.96
2018-03-17T08:28:01.698Z,5.96
2018-03-17T08:28:43.384Z,5.92
2018-03-17T08:29:23.621Z,5.88
2018-03-17T08:30:04.992Z,5.87
2018-03-17T08:30:46.349Z,5.87
2018-03-17T08:31:31.591Z,5.92
2018-03-17T08:32:11.910Z,5.8
2018-03-17T08:32:52.367Z,5.88
2018-03-17T08:33:32.898Z,5.9
2018-03-17T08:34:13.588Z,5.81
2018-03-17T08:34:54.197Z,5.77
2018-03-17T08:35:34.620Z,5.85
2018-03-17T08:36:15.390Z,5.87
2018-03-17T08:36:56.123Z,5.9
2018-03-17T08:37:36.581Z,5.98
2018-03-17T08:38:17.313Z,6.03
2018-03-17T08:38:57.932Z,6.08
2018-03-17T08:39:38.438Z,6.1
2018-03-17T08:40:19.252Z,5.99
2018-03-17T08:41:00.076Z,6.16
2018-03-17T08:41:40.753Z,6.02
2018-03-17T08:42:21.131Z,5.87
2018-03-17T08:43:01.750Z,5.9
2018-03-17T08:43:43.172Z,5.9
2018-03-17T08:44:23.933Z,5.77
2018-03-17T08:45:04.319Z,5.7
2018-03-17T08:45:44.946Z,5.7
2018-03-17T08:46:26.554Z,5.7
2018-03-17T08:47:07.027Z,5.81
2018-03-17T08:47:47.640Z,5.9
2018-03-17T08:48:28.418Z,5.95
2018-03-17T08:49:08.952Z,6.03
2018-03-17T08:49:49.321Z,6.08
2018-03-17T08:50:29.791Z,5.96
2018-03-17T08:51:10.217Z,6.08
2018-03-17T08:51:50.866Z,6.03
2018-03-17T08:52:31.252Z,6.1
2018-03-17T08:53:11.684Z,6.2
2018-03-17T08:53:52.535Z,6.2
2018-03-17T08:54:33.585Z,6.3
2018-03-17T08:55:14.249Z,6.19
2018-03-17T08:55:56.515Z,6.13
2018-03-17T08:56:37.652Z,6.17
2018-03-17T08:57:18.099Z,6.11
2018-03-17T08:57:59.299Z,6.13
2018-03-17T08:58:39.619Z,6.08
2018-03-17T08:59:21.036Z,6.11
2018-03-17T09:00:03.098Z,6.19
2018-03-17T09:00:43.571Z,6.1
2018-03-17T09:01:24.213Z,6.11
2018-03-17T09:02:05.497Z,6.24
2018-03-17T09:02:46.119Z,6.24
2018-03-17T09:03:26.503Z,6.28
2018-03-17T09:04:07.076Z,6.24
2018-03-17T09:04:47.428Z,6.13
2018-03-17T09:05:28.015Z,6.1
2018-03-17T09:06:08.435Z,5.98
2018-03-17T09:06:49.145Z,5.92
2018-03-17T09:07:31.623Z,5.95
2018-03-17T09:08:14.018Z,5.95
2018-03-17T09:08:54.357Z,5.93
2018-03-17T09:09:34.767Z,5.99
2018-03-17T09:10:15.298Z,5.93
2018-03-17T09:10:55.697Z,5.98
2018-03-17T09:11:36.113Z,5.98
2018-03-17T09:12:16.581Z,6.05
2018-03-17T09:12:56.938Z,6.01
2018-03-17T09:13:37.568Z,6.2
2018-03-17T09:14:19.809Z,6.24
2018-03-17T09:15:00.013Z,6.46
2018-03-17T09:15:40.400Z,6.57
2018-03-17T09:16:21.887Z,6.51
2018-03-17T09:17:01.919Z,6.53
2018-03-17T09:17:42.285Z,6.57
2018-03-17T09:18:22.656Z,6.65
2018-03-17T09:19:04.769Z,6.48
2018-03-17T09:19:46.101Z,6.3
2018-03-17T09:20:28.331Z,6.11
2018-03-17T09:21:08.757Z,6.21
2018-03-17T09:21:49.689Z,6.17
2018-03-17T09:22:31.659Z,6.08
2018-03-17T09:23:13.049Z,5.96
2018-03-17T09:23:54.064Z,5.77
2018-03-17T09:24:35.528Z,5.77
2018-03-17T09:25:15.370Z,5.88
2018-03-17T09:25:57.334Z,5.88
2018-03-17T09:26:38.287Z,6.02
2018-03-17T09:27:19.503Z,6.06
2018-03-17T09:27:59.958Z,6.25
2018-03-17T09:28:41.352Z,6.3
2018-03-17T09:29:20.878Z,6.33
2018-03-17T09:30:01.706Z,6.36
2018-03-17T09:30:42.192Z,6.45
2018-03-17T09:31:22.741Z,6.25
2018-03-17T09:32:03.069Z,6.21
2018-03-17T09:32:43.530Z,6.24
2018-03-17T09:33:24.079Z,6.27
2018-03-17T09:34:06.734Z,6.24
2018-03-17T09:34:46.342Z,6.35
2018-03-17T09:35:26.631Z,6.33
2018-03-17T09:36:07.403Z,6.43
2018-03-17T09:36:49.388Z,6.51
2018-03-17T09:37:29.822Z,6.35
2018-03-17T09:38:10.374Z,6.28
2018-03-17T09:38:51.197Z,6.19
2018-03-17T09:39:32.219Z,6.25
2018-03-17T09:40:12.588Z,6.2
2018-03-17T09:40:53.242Z,6.08
2018-03-17T09:41:33.639Z,5.99
2018-03-17T09:42:15.092Z,6.02
2018-03-17T09:42:56.684Z,6.01
2018-03-17T09:43:38.496Z,5.87
2018-03-17T09:44:19.581Z,5.99
2018-03-17T09:45:00.613Z,5.96
2018-03-17T09:45:40.920Z,6.05
2018-03-17T09:46:21.420Z,5.88
2018-03-17T09:47:01.971Z,5.77
2018-03-17T09:47:42.307Z,5.7
2018-03-17T09:48:22.831Z,5.65
2018-03-17T09:49:03.697Z,5.23
2018-03-17T09:49:44.101Z,5.29
2018-03-17T09:50:24.607Z,5.24
2018-03-17T09:51:05.223Z,5.32
2018-03-17T09:51:45.525Z,5.32
2018-03-17T09:52:26.878Z,5.22
2018-03-17T09:53:08.373Z,5.17
2018-03-17T09:53:48.823Z,4.86
2018-03-17T09:54:29.458Z,4.74
2018-03-17T09:55:09.804Z,4.77
2018-03-17T09:55:50.254Z,4.83
2018-03-17T09:56:30.752Z,4.86
2018-03-17T09:57:11.207Z,4.87
2018-03-17T09:57:52.468Z,4.79
2018-03-17T09:58:33.472Z,4.77
2018-03-17T09:59:14.676Z,4.83
2018-03-17T09:59:55.058Z,4.91
2018-03-17T10:00:35.725Z,5.05
2018-03-17T10:01:17.254Z,4.96
2018-03-17T10:01:57.614Z,4.75